Terminal Aerodrome Forecast
Issued by NWS Columbia, SC

Home | Current Version | Previous Version | Text Only | Print | Product List | Glossary On
Versions: 1 2 3 4 5 6 7 8 9 10 11 12 13 14 15 16 17 18 19 20 21 22 23 24 25 26 27 28 29 30 31 32
812
FTUS42 KCAE 272014 AAA
TAFCAE
TAF AMD
KCAE 272014Z 2720/2818 22010KT P6SM VCTS SCT040 BKN050CB BKN080
      TEMPO 2720/2722 27012G25KT 5SM -TSRA BR BKN035CB OVC050
     FM280100 19005KT P6SM VCSH BKN035 WS010/21025KT
     FM281400 24012G18KT P6SM VCSH BKN035=

USA.gov is the U.S. government's official web portal to all federal, state and local government web resources and services.